createdAt,value
2023-10-08T00:02:31.296Z,99943.92
2023-10-08T00:05:40.476Z,99932.71
2023-10-08T00:08:42.524Z,99935.31
2023-10-08T00:11:45.172Z,99942.33
2023-10-08T00:14:50.062Z,99951.15
2023-10-08T00:17:55.192Z,99948.20
2023-10-08T00:21:07.392Z,99941.92
2023-10-08T00:24:09.778Z,99938.80
2023-10-08T00:27:15.298Z,99932.51
2023-10-08T00:30:20.166Z,99928.86
2023-10-08T00:33:22.369Z,99928.45
2023-10-08T00:36:24.914Z,99920.28
2023-10-08T00:39:27.572Z,99903.69
2023-10-08T00:42:30.858Z,99893.08
2023-10-08T00:45:32.806Z,99905.21
2023-10-08T00:48:36.649Z,99924.37
2023-10-08T00:51:41.740Z,99929.23
2023-10-08T00:54:49.881Z,99929.91
2023-10-08T00:57:58.441Z,99926.51
2023-10-08T01:01:01.214Z,99914.22
2023-10-08T01:04:12.295Z,99906.86
2023-10-08T01:07:18.924Z,99905.61
2023-10-08T01:10:21.354Z,99901.22
2023-10-08T01:13:23.523Z,99914.09
2023-10-08T01:16:27.786Z,99924.09
2023-10-08T01:19:32.065Z,99926.12
2023-10-08T01:22:33.949Z,99923.16
2023-10-08T01:25:38.161Z,99920.50
2023-10-08T01:28:41.036Z,99925.88
2023-10-08T01:31:43.057Z,99920.27
2023-10-08T01:34:45.842Z,99902.52
2023-10-08T01:37:48.894Z,99893.67
2023-10-08T01:40:51.793Z,99902.88
2023-10-08T01:43:53.748Z,99912.92
2023-10-08T01:46:58.876Z,99908.05
2023-10-08T01:50:06.007Z,99906.94
2023-10-08T01:53:10.517Z,99924.05
2023-10-08T01:56:12.594Z,99936.07
2023-10-08T01:59:16.326Z,99949.46
2023-10-08T02:02:18.323Z,99952.27
2023-10-08T02:05:21.581Z,99957.71
2023-10-08T02:08:24.439Z,99955.69
2023-10-08T02:11:28.201Z,99949.96
2023-10-08T02:14:32.142Z,99935.09
2023-10-08T02:17:35.275Z,99926.33
2023-10-08T02:20:40.200Z,99925.12
2023-10-08T02:23:44.223Z,99934.85
2023-10-08T02:26:46.151Z,99936.30
2023-10-08T02:29:48.185Z,99938.61
2023-10-08T02:32:50.382Z,99939.48
2023-10-08T02:35:54.073Z,99946.98
2023-10-08T02:38:56.096Z,99968.46
2023-10-08T02:42:00.357Z,99978.27
2023-10-08T02:45:04.255Z,99989.05
2023-10-08T02:48:12.491Z,99985.10
2023-10-08T02:51:14.826Z,99985.42
2023-10-08T02:54:31.834Z,99991.44
2023-10-08T02:57:33.725Z,100001.31
2023-10-08T03:00:35.972Z,100003.41
2023-10-08T03:03:42.652Z,100001.30
2023-10-08T03:06:49.880Z,99998.70
2023-10-08T03:10:03.952Z,100009.45
2023-10-08T03:13:06.972Z,100006.23
2023-10-08T03:16:13.800Z,100004.25
2023-10-08T03:19:19.941Z,100013.17
2023-10-08T03:22:22.001Z,100008.55
2023-10-08T03:25:25.132Z,100013.91
2023-10-08T03:28:35.354Z,100021.45
2023-10-08T03:31:49.482Z,100015.64
2023-10-08T03:34:55.062Z,100023.02
2023-10-08T03:38:16.988Z,100025.59
2023-10-08T03:41:27.993Z,100032.28
2023-10-08T03:44:30.248Z,100036.31
2023-10-08T03:47:32.889Z,100044.54
2023-10-08T03:50:43.060Z,100050.80
2023-10-08T03:53:59.083Z,100057.80
2023-10-08T03:57:01.569Z,100053.26
2023-10-08T04:00:08.355Z,100053.48
2023-10-08T04:03:24.107Z,100067.48
2023-10-08T04:06:38.964Z,100077.83
2023-10-08T04:09:42.824Z,100077.15
2023-10-08T04:12:45.590Z,100073.21
2023-10-08T04:15:47.690Z,100084.02
2023-10-08T04:18:50.946Z,100091.29
2023-10-08T04:21:56.775Z,100090.96
2023-10-08T04:25:03.327Z,100092.31
2023-10-08T04:28:06.757Z,100097.11
2023-10-08T04:31:17.732Z,100101.83
2023-10-08T04:34:22.840Z,100111.80
2023-10-08T04:37:32.697Z,100117.83
2023-10-08T04:40:48.452Z,100126.61
2023-10-08T04:43:50.674Z,100135.93
2023-10-08T04:46:53.492Z,100141.98
2023-10-08T04:49:57.248Z,100150.24
2023-10-08T04:52:59.097Z,100151.48
2023-10-08T04:56:14.662Z,100158.33
2023-10-08T04:59:23.239Z,100163.45
2023-10-08T05:02:49.879Z,100169.52
2023-10-08T05:06:06.931Z,100172.61
2023-10-08T05:09:22.678Z,100178.13
2023-10-08T05:12:33.460Z,100183.81
2023-10-08T05:15:42.187Z,100191.84
2023-10-08T05:19:14.662Z,100194.79
2023-10-08T05:22:20.681Z,100197.91
2023-10-08T05:25:35.711Z,100195.69
2023-10-08T05:28:57.683Z,100199.20
2023-10-08T05:32:25.900Z,100205.19
2023-10-08T05:35:42.788Z,100215.48
2023-10-08T05:39:01.139Z,100219.78
2023-10-08T05:42:26.078Z,100226.18
2023-10-08T05:45:33.853Z,100232.89
2023-10-08T05:48:45.744Z,100241.62
2023-10-08T05:51:47.928Z,100252.14
2023-10-08T05:55:14.539Z,100256.34
2023-10-08T05:58:19.100Z,100265.75
2023-10-08T06:01:40.283Z,100272.60
2023-10-08T06:05:04.892Z,100275.77
2023-10-08T06:08:15.415Z,100283.38
2023-10-08T06:11:37.393Z,100294.98
2023-10-08T06:15:07.812Z,100304.23
2023-10-08T06:18:09.943Z,100310.42
2023-10-08T06:21:12.389Z,100316.70
2023-10-08T06:24:17.556Z,100324.58
2023-10-08T06:27:20.494Z,100332.92
2023-10-08T06:30:25.218Z,100340.07
2023-10-08T06:33:33.985Z,100346.27
2023-10-08T06:36:36.334Z,100352.77
2023-10-08T06:39:47.830Z,100366.46
2023-10-08T06:42:52.127Z,100369.82
2023-10-08T06:45:58.420Z,100377.13
2023-10-08T06:49:03.170Z,100386.08
2023-10-08T06:52:07.866Z,100387.45
2023-10-08T06:55:13.539Z,100388.30
2023-10-08T06:58:15.686Z,100395.69
2023-10-08T07:01:25.412Z,100396.59
2023-10-08T07:04:27.738Z,100405.03
2023-10-08T07:07:32.550Z,100406.22
2023-10-08T07:10:34.794Z,100410.92
2023-10-08T07:13:37.719Z,100415.83
2023-10-08T07:16:42.511Z,100420.56
2023-10-08T07:19:47.791Z,100423.58
2023-10-08T07:22:54.627Z,100436.40
2023-10-08T07:26:11.407Z,100442.44
2023-10-08T07:29:17.664Z,100449.66
2023-10-08T07:32:19.589Z,100454.86
2023-10-08T07:35:21.573Z,100458.17
2023-10-08T07:38:28.092Z,100461.14
2023-10-08T07:41:30.237Z,100459.84
2023-10-08T07:44:36.166Z,100464.11
2023-10-08T07:47:39.020Z,100468.16
2023-10-08T07:50:42.531Z,100472.14
2023-10-08T07:53:46.582Z,100478.17
2023-10-08T07:57:00.068Z,100486.94
2023-10-08T08:00:18.717Z,100492.95
2023-10-08T08:03:21.589Z,100498.32
2023-10-08T08:06:23.866Z,100503.53
2023-10-08T08:09:26.975Z,100504.64
2023-10-08T08:12:29.791Z,100503.00
2023-10-08T08:15:36.647Z,100508.01
2023-10-08T08:18:38.757Z,100506.89
2023-10-08T08:21:45.648Z,100506.87
2023-10-08T08:25:05.910Z,100512.23
2023-10-08T08:28:17.421Z,100516.47
2023-10-08T08:31:20.173Z,100526.48
2023-10-08T08:34:22.180Z,100524.36
2023-10-08T08:37:26.249Z,100522.67
2023-10-08T08:40:28.114Z,100526.60
2023-10-08T08:43:34.313Z,100532.38
2023-10-08T08:46:38.396Z,100533.03
2023-10-08T08:49:43.115Z,100534.65
2023-10-08T08:52:48.747Z,100537.86
2023-10-08T08:55:55.028Z,100542.42
2023-10-08T08:59:00.128Z,100541.01
2023-10-08T09:02:04.568Z,100548.90
2023-10-08T09:05:25.987Z,100551.02
2023-10-08T09:08:38.041Z,100546.23
2023-10-08T09:11:43.524Z,100556.30
2023-10-08T09:14:46.837Z,100559.27
2023-10-08T09:17:49.843Z,100556.96
2023-10-08T09:20:51.954Z,100560.89
2023-10-08T09:23:54.986Z,100562.00
2023-10-08T09:26:58.694Z,100564.33
2023-10-08T09:30:08.983Z,100564.64
2023-10-08T09:33:13.100Z,100572.65
2023-10-08T09:36:16.344Z,100572.52
2023-10-08T09:39:23.856Z,100577.96
2023-10-08T09:42:26.309Z,100581.99
2023-10-08T09:45:30.450Z,100584.45
2023-10-08T09:48:38.294Z,100585.84
2023-10-08T09:51:40.791Z,100589.66
2023-10-08T09:54:59.969Z,100591.60
2023-10-08T09:58:02.260Z,100601.44
2023-10-08T10:01:04.956Z,100601.08
2023-10-08T10:04:11.022Z,100595.98
2023-10-08T10:07:17.393Z,100596.09
2023-10-08T10:10:33.843Z,100596.42
2023-10-08T10:13:45.004Z,100605.91
2023-10-08T10:16:49.534Z,100598.33
2023-10-08T10:20:01.066Z,100601.89
2023-10-08T10:23:43.457Z,100602.81
2023-10-08T10:26:49.861Z,100604.60
2023-10-08T10:29:53.288Z,100608.61
2023-10-08T10:33:00.592Z,100610.73
2023-10-08T10:36:05.730Z,100612.24
2023-10-08T10:39:16.505Z,100610.30
2023-10-08T10:42:21.826Z,100601.92
2023-10-08T10:45:40.847Z,100608.98
2023-10-08T10:48:48.764Z,100611.27
2023-10-08T10:51:57.958Z,100608.41
2023-10-08T10:55:23.301Z,100608.23
2023-10-08T10:58:26.563Z,100611.80
2023-10-08T11:01:45.033Z,100610.42
2023-10-08T11:04:48.121Z,100613.20
2023-10-08T11:07:50.160Z,100611.29
2023-10-08T11:10:53.813Z,100615.08
2023-10-08T11:14:00.653Z,100607.70
2023-10-08T11:17:23.300Z,100613.72
2023-10-08T11:20:25.997Z,100609.40
2023-10-08T11:23:42.045Z,100618.79
2023-10-08T11:27:02.122Z,100621.05
2023-10-08T11:30:11.578Z,100611.67
2023-10-08T11:33:16.064Z,100623.72
2023-10-08T11:36:21.005Z,100614.44
2023-10-08T11:39:23.982Z,100617.34
2023-10-08T11:42:33.501Z,100620.17
2023-10-08T11:45:48.532Z,100622.03
2023-10-08T11:48:51.100Z,100618.57
2023-10-08T11:51:52.985Z,100620.39
2023-10-08T11:54:55.000Z,100615.02
2023-10-08T11:57:58.519Z,100622.70
2023-10-08T12:01:04.111Z,100621.21
2023-10-08T12:04:13.442Z,100617.19
2023-10-08T12:07:17.861Z,100626.08
2023-10-08T12:10:23.576Z,100630.33
2023-10-08T12:13:25.567Z,100637.29
2023-10-08T12:16:30.506Z,100639.20
2023-10-08T12:19:32.885Z,100633.08
2023-10-08T12:22:37.582Z,100637.21
2023-10-08T12:25:39.874Z,100628.66
2023-10-08T12:28:51.553Z,100633.55
2023-10-08T12:31:53.980Z,100643.00
2023-10-08T12:34:56.259Z,100644.55
2023-10-08T12:37:58.303Z,100640.38
2023-10-08T12:41:08.579Z,100645.52
2023-10-08T12:44:12.137Z,100647.33
2023-10-08T12:47:14.175Z,100635.98
2023-10-08T12:50:23.720Z,100644.52
2023-10-08T12:53:27.612Z,100648.55
2023-10-08T12:56:36.311Z,100642.98
2023-10-08T12:59:39.613Z,100651.05
2023-10-08T13:02:42.874Z,100650.54
2023-10-08T13:05:45.103Z,100645.03
2023-10-08T13:08:47.263Z,100650.59
2023-10-08T13:11:50.657Z,100643.18
2023-10-08T13:14:52.689Z,100653.47
2023-10-08T13:17:55.064Z,100663.42
2023-10-08T13:20:58.386Z,100667.96
2023-10-08T13:24:00.609Z,100669.11
2023-10-08T13:27:06.107Z,100668.41
2023-10-08T13:30:11.789Z,100678.47
2023-10-08T13:33:13.735Z,100677.68
2023-10-08T13:36:19.417Z,100675.21
2023-10-08T13:39:21.942Z,100675.73
2023-10-08T13:42:24.650Z,100674.90
2023-10-08T13:45:27.301Z,100677.16
2023-10-08T13:48:29.478Z,100680.83
2023-10-08T13:51:33.779Z,100681.01
2023-10-08T13:54:39.638Z,100687.35
2023-10-08T13:57:45.087Z,100684.35
2023-10-08T14:00:48.888Z,100687.60
2023-10-08T14:03:56.652Z,100681.47
2023-10-08T14:06:59.134Z,100681.27
2023-10-08T14:10:06.045Z,100688.67
2023-10-08T14:13:08.049Z,100693.24
2023-10-08T14:16:11.808Z,100692.31
2023-10-08T14:19:15.082Z,100695.16
2023-10-08T14:22:17.827Z,100690.45
2023-10-08T14:25:24.642Z,100694.46
2023-10-08T14:28:41.015Z,100702.81
2023-10-08T14:31:45.083Z,100702.98
2023-10-08T14:34:47.001Z,100708.42
2023-10-08T14:38:07.788Z,100714.94
2023-10-08T14:41:28.402Z,100715.08
2023-10-08T14:44:30.792Z,100717.05
2023-10-08T14:47:32.719Z,100726.00
2023-10-08T14:50:34.940Z,100729.52
2023-10-08T14:53:39.127Z,100734.57
2023-10-08T14:56:41.254Z,100735.91
2023-10-08T14:59:43.403Z,100738.36
2023-10-08T15:02:45.433Z,100739.58
2023-10-08T15:05:49.069Z,100744.91
2023-10-08T15:08:53.003Z,100745.49
2023-10-08T15:11:55.011Z,100747.45
2023-10-08T15:14:57.248Z,100744.88
2023-10-08T15:17:59.567Z,100747.83
2023-10-08T15:21:04.704Z,100749.89
2023-10-08T15:24:12.400Z,100763.71
2023-10-08T15:27:14.497Z,100766.77
2023-10-08T15:30:21.346Z,100770.10
2023-10-08T15:33:26.824Z,100779.06
2023-10-08T15:36:29.091Z,100781.80
2023-10-08T15:39:31.045Z,100786.70
2023-10-08T15:42:37.420Z,100793.33
2023-10-08T15:45:39.324Z,100797.17
2023-10-08T15:48:41.414Z,100798.41
2023-10-08T15:51:43.768Z,100803.76
2023-10-08T15:54:46.377Z,100812.20
2023-10-08T15:57:48.626Z,100812.66
2023-10-08T16:00:50.504Z,100817.56
2023-10-08T16:03:52.764Z,100825.70
2023-10-08T16:06:55.062Z,100831.73
2023-10-08T16:09:56.941Z,100839.38
2023-10-08T16:12:58.852Z,100845.14
2023-10-08T16:16:00.883Z,100851.84
2023-10-08T16:19:03.118Z,100854.58
2023-10-08T16:22:05.144Z,100867.57
2023-10-08T16:25:08.002Z,100872.05
2023-10-08T16:28:11.942Z,100873.36
2023-10-08T16:31:14.321Z,100873.55
2023-10-08T16:34:16.391Z,100874.77
2023-10-08T16:37:22.255Z,100878.16
2023-10-08T16:40:24.485Z,100888.71
2023-10-08T16:43:26.470Z,100892.15
2023-10-08T16:46:28.377Z,100891.45
2023-10-08T16:49:30.687Z,100901.55
2023-10-08T16:52:32.801Z,100905.52
2023-10-08T16:55:34.953Z,100909.14
2023-10-08T16:58:37.100Z,100915.86
2023-10-08T17:01:39.001Z,100915.47
2023-10-08T17:04:41.410Z,100915.51
2023-10-08T17:07:47.109Z,100917.86
2023-10-08T17:10:49.772Z,100922.48
2023-10-08T17:13:52.232Z,100929.40
2023-10-08T17:16:54.675Z,100926.07
2023-10-08T17:19:57.124Z,100925.00
2023-10-08T17:23:00.184Z,100923.66
2023-10-08T17:26:02.593Z,100927.65
2023-10-08T17:29:08.820Z,100931.73
2023-10-08T17:32:11.378Z,100941.57
2023-10-08T17:35:16.878Z,100947.73
2023-10-08T17:38:20.342Z,100951.73
2023-10-08T17:41:22.761Z,100960.77
2023-10-08T17:44:27.622Z,100964.83
2023-10-08T17:47:30.357Z,100964.42
2023-10-08T17:50:36.763Z,100967.65
2023-10-08T17:53:39.884Z,100967.90
2023-10-08T17:56:42.549Z,100976.75
2023-10-08T17:59:46.913Z,100976.67
2023-10-08T18:02:50.858Z,100980.70
2023-10-08T18:05:54.367Z,100979.40
2023-10-08T18:08:57.007Z,100982.17
2023-10-08T18:12:01.010Z,100985.77
2023-10-08T18:15:04.974Z,100984.19
2023-10-08T18:18:10.976Z,100986.77
2023-10-08T18:21:17.279Z,100992.24
2023-10-08T18:24:22.312Z,100993.52
2023-10-08T18:27:24.923Z,100994.53
2023-10-08T18:30:27.807Z,101001.26
2023-10-08T18:33:30.728Z,101002.27
2023-10-08T18:36:36.179Z,101007.60
2023-10-08T18:39:38.671Z,101010.98
2023-10-08T18:42:47.508Z,101013.23
2023-10-08T18:45:50.405Z,101012.64
2023-10-08T18:48:53.013Z,101015.00
2023-10-08T18:51:55.894Z,101018.20
2023-10-08T18:54:59.858Z,101013.58
2023-10-08T18:58:04.805Z,101013.54
2023-10-08T19:01:07.702Z,101012.56
2023-10-08T19:04:10.631Z,101018.33
2023-10-08T19:07:14.497Z,101022.90
2023-10-08T19:10:17.086Z,101027.30
2023-10-08T19:13:20.012Z,101029.39
2023-10-08T19:16:25.429Z,101030.45
2023-10-08T19:19:30.525Z,101034.73
2023-10-08T19:22:33.045Z,101039.68
2023-10-08T19:25:35.732Z,101045.13
2023-10-08T19:28:39.144Z,101049.41
2023-10-08T19:31:41.176Z,101052.70
2023-10-08T19:34:45.009Z,101052.92
2023-10-08T19:37:47.403Z,101056.95
2023-10-08T19:40:49.287Z,101057.66
2023-10-08T19:43:51.489Z,101059.68
2023-10-08T19:46:53.522Z,101063.64
2023-10-08T19:49:55.412Z,101071.05
2023-10-08T19:52:58.043Z,101076.42
2023-10-08T19:56:00.827Z,101079.13
2023-10-08T19:59:03.321Z,101076.31
2023-10-08T20:02:06.405Z,101076.09
2023-10-08T20:05:12.686Z,101079.92
2023-10-08T20:08:16.179Z,101082.00
2023-10-08T20:11:18.412Z,101086.13
2023-10-08T20:14:20.732Z,101083.27
2023-10-08T20:17:22.659Z,101087.41
2023-10-08T20:20:30.412Z,101086.30
2023-10-08T20:23:36.146Z,101091.94
2023-10-08T20:26:38.657Z,101096.04
2023-10-08T20:29:40.551Z,101096.34
2023-10-08T20:32:46.393Z,101098.91
2023-10-08T20:35:52.616Z,101103.56
2023-10-08T20:38:54.659Z,101102.78
2023-10-08T20:41:57.299Z,101108.03
2023-10-08T20:44:59.685Z,101109.77
2023-10-08T20:48:01.989Z,101108.91
2023-10-08T20:51:04.087Z,101115.64
2023-10-08T20:54:06.427Z,101119.08
2023-10-08T20:57:10.530Z,101118.56
2023-10-08T21:00:29.187Z,101117.14
2023-10-08T21:03:31.980Z,101117.86
2023-10-08T21:06:34.169Z,101123.21
2023-10-08T21:09:36.348Z,101126.04
2023-10-08T21:12:42.832Z,101125.41
2023-10-08T21:15:45.484Z,101131.77
2023-10-08T21:18:49.807Z,101129.79
2023-10-08T21:21:53.277Z,101133.05
2023-10-08T21:24:55.183Z,101132.70
2023-10-08T21:27:58.292Z,101132.91
2023-10-08T21:31:07.521Z,101134.87
2023-10-08T21:34:09.863Z,101138.90
2023-10-08T21:37:11.914Z,101140.91
2023-10-08T21:40:16.300Z,101139.25
2023-10-08T21:43:18.157Z,101139.40
2023-10-08T21:46:22.459Z,101138.01
2023-10-08T21:49:24.455Z,101137.52
2023-10-08T21:52:28.102Z,101133.55
2023-10-08T21:55:30.399Z,101140.66
2023-10-08T21:58:34.089Z,101139.24
2023-10-08T22:01:38.638Z,101143.88
2023-10-08T22:04:40.640Z,101141.33
2023-10-08T22:07:44.589Z,101138.89
2023-10-08T22:10:46.615Z,101145.06
2023-10-08T22:13:49.221Z,101147.29
2023-10-08T22:16:52.676Z,101145.45
2023-10-08T22:19:56.397Z,101146.95
2023-10-08T22:22:58.358Z,101146.88
2023-10-08T22:26:00.307Z,101147.62
2023-10-08T22:29:03.275Z,101152.19
2023-10-08T22:32:08.749Z,101148.91
2023-10-08T22:35:16.526Z,101137.81
2023-10-08T22:38:18.454Z,101149.77
2023-10-08T22:41:23.231Z,101143.25
2023-10-08T22:44:29.693Z,101141.14
2023-10-08T22:47:33.226Z,101145.66
2023-10-08T22:50:42.126Z,101140.38
2023-10-08T22:53:44.449Z,101142.52
2023-10-08T22:56:46.550Z,101146.89
2023-10-08T22:59:49.612Z,101143.11
2023-10-08T23:02:51.917Z,101138.50
2023-10-08T23:05:54.128Z,101143.80
2023-10-08T23:08:59.815Z,101142.55
2023-10-08T23:12:01.965Z,101149.21
2023-10-08T23:15:05.064Z,101150.27
2023-10-08T23:18:08.206Z,101152.84
2023-10-08T23:21:11.994Z,101145.50
2023-10-08T23:24:15.467Z,101143.55
2023-10-08T23:27:18.184Z,101137.26
2023-10-08T23:30:20.595Z,101138.45
2023-10-08T23:33:23.498Z,101145.81
2023-10-08T23:36:44.289Z,101139.81
2023-10-08T23:39:46.163Z,101137.64
2023-10-08T23:42:51.634Z,101136.01
2023-10-08T23:46:00.498Z,101133.59
2023-10-08T23:49:16.413Z,101130.99
2023-10-08T23:52:22.736Z,101126.73
2023-10-08T23:55:25.974Z,101121.10
2023-10-08T23:58:31.701Z,101113.73
